Terminal Aerodrome Forecast
Issued by NWS

Home | Current Version | Previous Version | Text Only | Print | Product List | Glossary On
Versions: 1 2 3 4 5 6 7 8 9 10 11 12
000
FTUS46 KHNX 281138
TAFBFL
TAF
KBFL 281138Z 2812/2912 VRB04KT P6SM FEW250
     FM281900 30009G15KT P6SM SCT250
     FM290300 35007KT P6SM SCT250
     FM290700 VRB04KT P6SM SCT250=

USA.gov is the U.S. government's official web portal to all federal, state and local government web resources and services.